• Join FlightAware (Why Join?)
  • Login
  • US Flag 
09:23AM EST


 

Airport Tracker/Info


-or-


 

Live Flight TrackerFlight Track Log ✈ VH-BOF ✈ 03-Dec-2013 ✈ YNRG - YPJT / JAD

Flight Track Log - Related Links

Times and Time Zones

All times are in EST time to prevent confusion due to time zone crossing. See the VH-BOF flight status page for this flight to view local times or setup timezone preferences in your user account.

Time Position Orientation Groundspeed Altitude Reporting Facility
EST Latitude Longitude Course Direction KTS MPH feet Rate Location/Type
09:46AM -32.5096 117.1748 296° West 6,500  Level Aus ATC (Calculated)
09:47AM -32.5333 117.0833 304° West 6,500  Level Aus ATC (Calculated)
09:48AM -32.3220 116.7159 302° West 110 127 6,500  Level Aus ATC (RADAR)
09:49AM -32.3042 116.6826 302° West 114 131 6,500  Level Aus ATC (RADAR)
09:50AM -32.2862 116.6482 302° West 108 124 6,600 -60 Climbing Aus ATC (RADAR)
09:51AM -32.2701 116.6122 298° West 118 136 6,400  Descending Aus ATC (RADAR)
09:52AM -32.2550 116.5794 299° West 109 125 6,600 -240 Climbing Aus ATC (RADAR)
09:53AM -32.2394 116.5421 296° West 116 133 6,000 -540 Descending Aus ATC (RADAR)
09:54AM -32.2270 116.5036 291° West 110 127 5,500 -480 Descending Aus ATC (RADAR)
09:55AM -32.2188 116.4665 285° West 101 116 5,000 -480 Descending Aus ATC (RADAR)
09:56AM -32.2136 116.4327 280° West 102 117 4,500 -240 Descending Aus ATC (RADAR)
09:58AM -32.2078 116.3889 279° West 108 124 4,500  Level Aus ATC (RADAR)
09:59AM -32.2015 116.3516 281° West 102 117 4,600  Climbing Aus ATC (RADAR)
10:00AM -32.1950 116.3163 282° West 100 115 4,600 -60 Level Aus ATC (RADAR)
10:01AM -32.1861 116.2781 285° West 109 125 4,500 -60 Descending Aus ATC (RADAR)
10:02AM -32.1779 116.2429 286° West 106 122 4,500 -120 Level Aus ATC (RADAR)
10:03AM -32.1679 116.2032 287° West 105 121 4,300 -300 Descending Aus ATC (RADAR)
10:04AM -32.1600 116.1701 286° West 103 119 3,900 -480 Descending Aus ATC (RADAR)
10:05AM -32.1532 116.1312 282° West 109 125 3,400 -480 Descending Aus ATC (RADAR)
10:06AM -32.1460 116.0905 282° West 115 132 2,900 -240 Descending Aus ATC (RADAR)
10:07AM -32.1404 116.0531 280° West 107 123 2,900  Level Aus ATC (RADAR)
10:08AM -32.1581 116.0232 235° Southwest 99 114 3,000 -60 Climbing Aus ATC (RADAR)
10:09AM -32.1768 115.9943 233° Southwest 102 117 2,800 -240 Descending Aus ATC (RADAR)
10:12AM -32.1943 115.9226 254° West 111 128 2,400 -240 Descending Aus ATC (RADAR)
10:13AM -32.1807 115.8871 294° West 123 142 2,100 -300 Descending Aus ATC (RADAR)
10:13AM -32.1777 115.8865 350° North 125 144 2,100 -480 Level Aus ATC (RADAR)
10:13AM -32.1575 115.8864 360° North 124 143 1,800 -540 Descending Aus ATC (RADAR)
10:15AM -32.1199 115.8831 356° North  Level Estimated